sensor_id;sensor_type;location;lat;lon;timestamp;temperature;humidity
16781;DHT22;8507;50.056;8.248;2023-08-07T00:00:54;14.00;99.90
16781;DHT22;8507;50.056;8.248;2023-08-07T00:03:20;14.00;99.90
16781;DHT22;8507;50.056;8.248;2023-08-07T00:05:46;14.10;99.90
16781;DHT22;8507;50.056;8.248;2023-08-07T00:08:12;14.10;99.90
16781;DHT22;8507;50.056;8.248;2023-08-07T00:10:37;14.10;99.90
16781;DHT22;8507;50.056;8.248;2023-08-07T00:13:03;14.10;99.90
16781;DHT22;8507;50.056;8.248;2023-08-07T00:15:29;14.10;99.90
16781;DHT22;8507;50.056;8.248;2023-08-07T00:17:54;14.10;99.90
16781;DHT22;8507;50.056;8.248;2023-08-07T00:20:20;14.10;99.90
16781;DHT22;8507;50.056;8.248;2023-08-07T00:22:45;14.10;99.90
16781;DHT22;8507;50.056;8.248;2023-08-07T00:25:11;14.10;99.90
16781;DHT22;8507;50.056;8.248;2023-08-07T00:27:36;14.10;99.90
16781;DHT22;8507;50.056;8.248;2023-08-07T00:30:02;14.10;99.90
16781;DHT22;8507;50.056;8.248;2023-08-07T00:32:28;14.10;99.90
16781;DHT22;8507;50.056;8.248;2023-08-07T00:34:53;14.10;99.90
16781;DHT22;8507;50.056;8.248;2023-08-07T00:37:19;14.20;99.90
16781;DHT22;8507;50.056;8.248;2023-08-07T00:39:44;14.20;99.90
16781;DHT22;8507;50.056;8.248;2023-08-07T00:42:10;14.20;99.90
16781;DHT22;8507;50.056;8.248;2023-08-07T00:44:35;14.20;99.90
16781;DHT22;8507;50.056;8.248;2023-08-07T00:47:01;14.20;99.90
16781;DHT22;8507;50.056;8.248;2023-08-07T00:49:27;14.20;99.90
16781;DHT22;8507;50.056;8.248;2023-08-07T00:51:52;14.20;99.90
16781;DHT22;8507;50.056;8.248;2023-08-07T00:54:18;14.10;99.90
16781;DHT22;8507;50.056;8.248;2023-08-07T00:56:45;14.10;99.90
16781;DHT22;8507;50.056;8.248;2023-08-07T00:59:11;14.10;99.90
16781;DHT22;8507;50.056;8.248;2023-08-07T01:01:37;14.10;99.90
16781;DHT22;8507;50.056;8.248;2023-08-07T01:04:03;14.10;99.90
16781;DHT22;8507;50.056;8.248;2023-08-07T01:06:29;14.10;99.90
16781;DHT22;8507;50.056;8.248;2023-08-07T01:08:54;14.10;99.90
16781;DHT22;8507;50.056;8.248;2023-08-07T01:11:32;14.10;99.90
16781;DHT22;8507;50.056;8.248;2023-08-07T01:17:16;14.10;99.90
16781;DHT22;8507;50.056;8.248;2023-08-07T01:19:42;14.10;99.90
16781;DHT22;8507;50.056;8.248;2023-08-07T01:22:16;14.10;99.90
16781;DHT22;8507;50.056;8.248;2023-08-07T01:24:51;14.10;99.90
16781;DHT22;8507;50.056;8.248;2023-08-07T01:27:33;14.00;99.90
16781;DHT22;8507;50.056;8.248;2023-08-07T01:33:16;14.00;99.90
16781;DHT22;8507;50.056;8.248;2023-08-07T01:35:45;14.00;99.90
16781;DHT22;8507;50.056;8.248;2023-08-07T01:38:12;14.00;99.90
16781;DHT22;8507;50.056;8.248;2023-08-07T01:40:39;14.00;99.90
16781;DHT22;8507;50.056;8.248;2023-08-07T01:43:05;14.10;99.90
16781;DHT22;8507;50.056;8.248;2023-08-07T01:45:31;14.10;99.90
16781;DHT22;8507;50.056;8.248;2023-08-07T01:47:57;14.10;99.90
16781;DHT22;8507;50.056;8.248;2023-08-07T01:50:23;14.10;99.90
16781;DHT22;8507;50.056;8.248;2023-08-07T01:52:50;14.10;99.90
16781;DHT22;8507;50.056;8.248;2023-08-07T01:55:16;14.10;99.90
16781;DHT22;8507;50.056;8.248;2023-08-07T01:57:42;14.10;99.90
16781;DHT22;8507;50.056;8.248;2023-08-07T02:00:08;14.10;99.90
16781;DHT22;8507;50.056;8.248;2023-08-07T02:02:35;14.10;99.90
16781;DHT22;8507;50.056;8.248;2023-08-07T02:05:01;14.10;99.90
16781;DHT22;8507;50.056;8.248;2023-08-07T02:07:26;14.00;99.90
16781;DHT22;8507;50.056;8.248;2023-08-07T02:09:52;14.10;99.90
16781;DHT22;8507;50.056;8.248;2023-08-07T02:12:17;14.00;99.90
16781;DHT22;8507;50.056;8.248;2023-08-07T02:14:43;14.00;99.90
16781;DHT22;8507;50.056;8.248;2023-08-07T02:17:09;14.00;99.90
16781;DHT22;8507;50.056;8.248;2023-08-07T02:19:34;13.90;99.90
16781;DHT22;8507;50.056;8.248;2023-08-07T02:21:59;13.90;99.90
16781;DHT22;8507;50.056;8.248;2023-08-07T02:24:25;13.90;99.90
16781;DHT22;8507;50.056;8.248;2023-08-07T02:26:50;13.90;99.90
16781;DHT22;8507;50.056;8.248;2023-08-07T02:29:16;13.90;99.90
16781;DHT22;8507;50.056;8.248;2023-08-07T02:31:42;13.90;99.90
16781;DHT22;8507;50.056;8.248;2023-08-07T02:34:07;13.80;99.90
16781;DHT22;8507;50.056;8.248;2023-08-07T02:36:33;13.80;99.90
16781;DHT22;8507;50.056;8.248;2023-08-07T02:38:58;13.80;99.90
16781;DHT22;8507;50.056;8.248;2023-08-07T02:41:24;13.80;99.90
16781;DHT22;8507;50.056;8.248;2023-08-07T02:43:49;13.80;99.90
16781;DHT22;8507;50.056;8.248;2023-08-07T02:46:15;13.80;99.90
16781;DHT22;8507;50.056;8.248;2023-08-07T02:48:40;13.70;99.90
16781;DHT22;8507;50.056;8.248;2023-08-07T02:51:06;13.70;99.90
16781;DHT22;8507;50.056;8.248;2023-08-07T02:53:31;13.80;99.90
16781;DHT22;8507;50.056;8.248;2023-08-07T02:55:57;13.80;99.90
16781;DHT22;8507;50.056;8.248;2023-08-07T02:58:22;13.80;99.90
16781;DHT22;8507;50.056;8.248;2023-08-07T03:00:48;13.80;99.90
16781;DHT22;8507;50.056;8.248;2023-08-07T03:03:13;13.70;99.90
16781;DHT22;8507;50.056;8.248;2023-08-07T03:05:39;13.70;99.90
16781;DHT22;8507;50.056;8.248;2023-08-07T03:08:12;13.70;99.90
16781;DHT22;8507;50.056;8.248;2023-08-07T03:10:38;13.70;99.90
16781;DHT22;8507;50.056;8.248;2023-08-07T03:13:03;13.70;99.90
16781;DHT22;8507;50.056;8.248;2023-08-07T03:15:29;13.70;99.90
16781;DHT22;8507;50.056;8.248;2023-08-07T03:17:54;13.70;99.90
16781;DHT22;8507;50.056;8.248;2023-08-07T03:20:20;13.70;99.90
16781;DHT22;8507;50.056;8.248;2023-08-07T03:22:45;13.70;99.90
16781;DHT22;8507;50.056;8.248;2023-08-07T03:25:11;13.70;99.90
16781;DHT22;8507;50.056;8.248;2023-08-07T03:27:36;13.70;99.90
16781;DHT22;8507;50.056;8.248;2023-08-07T03:30:02;13.70;99.90
16781;DHT22;8507;50.056;8.248;2023-08-07T03:32:27;13.70;99.90
16781;DHT22;8507;50.056;8.248;2023-08-07T03:34:53;13.70;99.90
16781;DHT22;8507;50.056;8.248;2023-08-07T03:37:18;13.70;99.90
16781;DHT22;8507;50.056;8.248;2023-08-07T03:39:44;13.70;99.90
16781;DHT22;8507;50.056;8.248;2023-08-07T03:42:13;13.80;99.90
16781;DHT22;8507;50.056;8.248;2023-08-07T03:44:40;13.80;99.90
16781;DHT22;8507;50.056;8.248;2023-08-07T03:47:05;13.80;99.90
16781;DHT22;8507;50.056;8.248;2023-08-07T03:49:31;13.90;99.90
16781;DHT22;8507;50.056;8.248;2023-08-07T03:51:56;13.90;99.90
16781;DHT22;8507;50.056;8.248;2023-08-07T03:54:24;13.90;99.90
16781;DHT22;8507;50.056;8.248;2023-08-07T03:56:50;13.80;99.90
16781;DHT22;8507;50.056;8.248;2023-08-07T03:59:16;13.80;99.90
16781;DHT22;8507;50.056;8.248;2023-08-07T04:01:42;13.90;99.90
16781;DHT22;8507;50.056;8.248;2023-08-07T04:04:07;13.90;99.90
16781;DHT22;8507;50.056;8.248;2023-08-07T04:06:33;13.90;99.90
16781;DHT22;8507;50.056;8.248;2023-08-07T04:08:59;13.80;99.90
16781;DHT22;8507;50.056;8.248;2023-08-07T04:11:24;13.80;99.90
16781;DHT22;8507;50.056;8.248;2023-08-07T04:13:50;13.80;99.90
16781;DHT22;8507;50.056;8.248;2023-08-07T04:16:15;13.80;99.90
16781;DHT22;8507;50.056;8.248;2023-08-07T04:18:42;13.80;99.90
16781;DHT22;8507;50.056;8.248;2023-08-07T04:21:08;13.80;99.90
16781;DHT22;8507;50.056;8.248;2023-08-07T04:23:33;13.80;99.90
16781;DHT22;8507;50.056;8.248;2023-08-07T04:25:59;13.70;99.90
16781;DHT22;8507;50.056;8.248;2023-08-07T04:28:27;13.70;99.90
16781;DHT22;8507;50.056;8.248;2023-08-07T04:30:53;13.70;99.90
16781;DHT22;8507;50.056;8.248;2023-08-07T04:33:21;13.70;99.90
16781;DHT22;8507;50.056;8.248;2023-08-07T04:35:47;13.70;99.90
16781;DHT22;8507;50.056;8.248;2023-08-07T04:38:14;13.70;99.90
16781;DHT22;8507;50.056;8.248;2023-08-07T04:40:46;13.70;99.90
16781;DHT22;8507;50.056;8.248;2023-08-07T04:43:13;13.70;99.90
16781;DHT22;8507;50.056;8.248;2023-08-07T04:45:38;13.70;99.90
16781;DHT22;8507;50.056;8.248;2023-08-07T04:48:06;13.80;99.90
16781;DHT22;8507;50.056;8.248;2023-08-07T04:50:31;13.80;99.90
16781;DHT22;8507;50.056;8.248;2023-08-07T04:52:57;13.90;99.90
16781;DHT22;8507;50.056;8.248;2023-08-07T04:55:22;13.90;99.90
16781;DHT22;8507;50.056;8.248;2023-08-07T04:57:48;13.90;99.90
16781;DHT22;8507;50.056;8.248;2023-08-07T05:00:15;13.90;99.90
16781;DHT22;8507;50.056;8.248;2023-08-07T05:02:41;13.90;99.90
16781;DHT22;8507;50.056;8.248;2023-08-07T05:05:06;13.90;99.90
16781;DHT22;8507;50.056;8.248;2023-08-07T05:07:33;13.90;99.90
16781;DHT22;8507;50.056;8.248;2023-08-07T05:10:01;13.90;99.90
16781;DHT22;8507;50.056;8.248;2023-08-07T05:12:27;13.90;99.90
16781;DHT22;8507;50.056;8.248;2023-08-07T05:14:52;14.00;99.90
16781;DHT22;8507;50.056;8.248;2023-08-07T05:17:18;13.90;99.90
16781;DHT22;8507;50.056;8.248;2023-08-07T05:19:43;14.00;99.90
16781;DHT22;8507;50.056;8.248;2023-08-07T05:22:09;14.00;99.90
16781;DHT22;8507;50.056;8.248;2023-08-07T05:24:34;14.00;99.90
16781;DHT22;8507;50.056;8.248;2023-08-07T05:27:08;14.00;99.90
16781;DHT22;8507;50.056;8.248;2023-08-07T05:29:34;14.00;99.90
16781;DHT22;8507;50.056;8.248;2023-08-07T05:32:00;14.00;99.90
16781;DHT22;8507;50.056;8.248;2023-08-07T05:34:25;14.00;99.90
16781;DHT22;8507;50.056;8.248;2023-08-07T05:36:51;14.10;99.90
16781;DHT22;8507;50.056;8.248;2023-08-07T05:39:16;14.00;99.90
16781;DHT22;8507;50.056;8.248;2023-08-07T05:41:42;14.00;99.90
16781;DHT22;8507;50.056;8.248;2023-08-07T05:44:07;14.00;99.90
16781;DHT22;8507;50.056;8.248;2023-08-07T05:46:33;14.00;99.90
16781;DHT22;8507;50.056;8.248;2023-08-07T05:48:58;14.00;99.90
16781;DHT22;8507;50.056;8.248;2023-08-07T05:51:24;14.10;99.90
16781;DHT22;8507;50.056;8.248;2023-08-07T05:53:49;14.20;99.90
16781;DHT22;8507;50.056;8.248;2023-08-07T05:56:15;14.20;99.90
16781;DHT22;8507;50.056;8.248;2023-08-07T05:58:42;14.20;99.90
16781;DHT22;8507;50.056;8.248;2023-08-07T06:01:07;14.30;99.90
16781;DHT22;8507;50.056;8.248;2023-08-07T06:03:33;14.20;99.90
16781;DHT22;8507;50.056;8.248;2023-08-07T06:05:59;14.30;99.90
16781;DHT22;8507;50.056;8.248;2023-08-07T06:08:24;14.30;99.90
16781;DHT22;8507;50.056;8.248;2023-08-07T06:10:50;14.20;99.90
16781;DHT22;8507;50.056;8.248;2023-08-07T06:13:16;14.30;99.90
16781;DHT22;8507;50.056;8.248;2023-08-07T06:15:41;14.30;99.90
16781;DHT22;8507;50.056;8.248;2023-08-07T06:18:07;14.30;99.90
16781;DHT22;8507;50.056;8.248;2023-08-07T06:20:33;14.30;99.90
16781;DHT22;8507;50.056;8.248;2023-08-07T06:22:59;14.40;99.90
16781;DHT22;8507;50.056;8.248;2023-08-07T06:25:25;14.40;99.90
16781;DHT22;8507;50.056;8.248;2023-08-07T06:27:50;14.50;99.90
16781;DHT22;8507;50.056;8.248;2023-08-07T06:30:16;14.60;99.90
16781;DHT22;8507;50.056;8.248;2023-08-07T06:32:41;14.60;99.90
16781;DHT22;8507;50.056;8.248;2023-08-07T06:35:07;14.60;99.90
16781;DHT22;8507;50.056;8.248;2023-08-07T06:37:33;14.70;99.90
16781;DHT22;8507;50.056;8.248;2023-08-07T06:39:59;14.60;99.90
16781;DHT22;8507;50.056;8.248;2023-08-07T06:42:24;14.60;99.90
16781;DHT22;8507;50.056;8.248;2023-08-07T06:44:50;14.60;99.90
16781;DHT22;8507;50.056;8.248;2023-08-07T06:47:15;14.60;99.90
16781;DHT22;8507;50.056;8.248;2023-08-07T06:49:41;14.70;99.90
16781;DHT22;8507;50.056;8.248;2023-08-07T06:52:06;14.70;99.90
16781;DHT22;8507;50.056;8.248;2023-08-07T06:54:32;14.60;99.90
16781;DHT22;8507;50.056;8.248;2023-08-07T06:56:57;14.70;99.90
16781;DHT22;8507;50.056;8.248;2023-08-07T06:59:23;14.70;99.90
16781;DHT22;8507;50.056;8.248;2023-08-07T07:01:49;14.80;99.90
16781;DHT22;8507;50.056;8.248;2023-08-07T07:04:14;14.90;99.90
16781;DHT22;8507;50.056;8.248;2023-08-07T07:06:40;14.90;99.90
16781;DHT22;8507;50.056;8.248;2023-08-07T07:09:05;15.00;99.90
16781;DHT22;8507;50.056;8.248;2023-08-07T07:11:31;15.00;99.90
16781;DHT22;8507;50.056;8.248;2023-08-07T07:13:56;15.00;99.90
16781;DHT22;8507;50.056;8.248;2023-08-07T07:16:22;14.90;99.90
16781;DHT22;8507;50.056;8.248;2023-08-07T07:18:50;14.90;99.90
16781;DHT22;8507;50.056;8.248;2023-08-07T07:21:17;15.00;99.90
16781;DHT22;8507;50.056;8.248;2023-08-07T07:23:42;15.00;99.90
16781;DHT22;8507;50.056;8.248;2023-08-07T07:26:08;15.00;99.90
16781;DHT22;8507;50.056;8.248;2023-08-07T07:28:33;15.00;99.90
16781;DHT22;8507;50.056;8.248;2023-08-07T07:30:59;15.10;99.90
16781;DHT22;8507;50.056;8.248;2023-08-07T07:33:24;15.10;99.90
16781;DHT22;8507;50.056;8.248;2023-08-07T07:35:50;15.10;99.90
16781;DHT22;8507;50.056;8.248;2023-08-07T07:38:16;15.10;99.90
16781;DHT22;8507;50.056;8.248;2023-08-07T07:40:41;15.20;99.90
16781;DHT22;8507;50.056;8.248;2023-08-07T07:43:07;15.10;99.90
16781;DHT22;8507;50.056;8.248;2023-08-07T07:45:33;15.10;99.90
16781;DHT22;8507;50.056;8.248;2023-08-07T07:48:02;15.10;99.90
16781;DHT22;8507;50.056;8.248;2023-08-07T07:50:28;15.20;99.90
16781;DHT22;8507;50.056;8.248;2023-08-07T07:52:54;15.30;99.90
16781;DHT22;8507;50.056;8.248;2023-08-07T07:55:19;15.40;99.90
16781;DHT22;8507;50.056;8.248;2023-08-07T07:57:45;15.40;99.90
16781;DHT22;8507;50.056;8.248;2023-08-07T08:00:11;15.40;99.90
16781;DHT22;8507;50.056;8.248;2023-08-07T08:02:39;15.40;99.90
16781;DHT22;8507;50.056;8.248;2023-08-07T08:05:06;15.40;99.90
16781;DHT22;8507;50.056;8.248;2023-08-07T08:07:32;15.50;99.90
16781;DHT22;8507;50.056;8.248;2023-08-07T08:10:00;15.50;99.90
16781;DHT22;8507;50.056;8.248;2023-08-07T08:12:26;15.50;99.90
16781;DHT22;8507;50.056;8.248;2023-08-07T08:14:51;15.60;99.90
16781;DHT22;8507;50.056;8.248;2023-08-07T08:17:17;15.50;99.90
16781;DHT22;8507;50.056;8.248;2023-08-07T08:19:42;15.70;99.90
16781;DHT22;8507;50.056;8.248;2023-08-07T08:22:07;15.60;99.90
16781;DHT22;8507;50.056;8.248;2023-08-07T08:24:33;15.70;99.90
16781;DHT22;8507;50.056;8.248;2023-08-07T08:26:58;15.70;99.90
16781;DHT22;8507;50.056;8.248;2023-08-07T08:29:24;15.80;99.90
16781;DHT22;8507;50.056;8.248;2023-08-07T08:31:52;15.80;99.90
16781;DHT22;8507;50.056;8.248;2023-08-07T08:34:19;15.80;99.90
16781;DHT22;8507;50.056;8.248;2023-08-07T08:36:46;15.90;99.90
16781;DHT22;8507;50.056;8.248;2023-08-07T08:39:11;15.90;99.90
16781;DHT22;8507;50.056;8.248;2023-08-07T08:41:37;16.00;99.90
16781;DHT22;8507;50.056;8.248;2023-08-07T08:44:04;16.10;99.90
16781;DHT22;8507;50.056;8.248;2023-08-07T08:46:31;15.90;99.90
16781;DHT22;8507;50.056;8.248;2023-08-07T08:48:59;15.90;99.90
16781;DHT22;8507;50.056;8.248;2023-08-07T08:51:26;15.90;99.90
16781;DHT22;8507;50.056;8.248;2023-08-07T08:53:52;16.10;99.90
16781;DHT22;8507;50.056;8.248;2023-08-07T08:56:22;16.00;99.90
16781;DHT22;8507;50.056;8.248;2023-08-07T08:58:51;16.10;99.90
16781;DHT22;8507;50.056;8.248;2023-08-07T09:01:20;16.00;99.90
16781;DHT22;8507;50.056;8.248;2023-08-07T09:03:47;15.80;99.90
16781;DHT22;8507;50.056;8.248;2023-08-07T09:06:13;15.70;99.90
16781;DHT22;8507;50.056;8.248;2023-08-07T09:08:42;15.70;99.90
16781;DHT22;8507;50.056;8.248;2023-08-07T09:11:08;15.60;99.90
16781;DHT22;8507;50.056;8.248;2023-08-07T09:13:34;15.60;99.90
16781;DHT22;8507;50.056;8.248;2023-08-07T09:16:01;15.50;99.90
16781;DHT22;8507;50.056;8.248;2023-08-07T09:18:27;15.60;99.90
16781;DHT22;8507;50.056;8.248;2023-08-07T09:20:53;15.60;99.90
16781;DHT22;8507;50.056;8.248;2023-08-07T09:23:19;15.50;99.90
16781;DHT22;8507;50.056;8.248;2023-08-07T09:25:45;15.50;99.90
16781;DHT22;8507;50.056;8.248;2023-08-07T09:28:11;15.50;99.90
16781;DHT22;8507;50.056;8.248;2023-08-07T09:30:38;15.60;99.90
16781;DHT22;8507;50.056;8.248;2023-08-07T09:33:04;15.50;99.90
16781;DHT22;8507;50.056;8.248;2023-08-07T09:35:31;15.60;99.90
16781;DHT22;8507;50.056;8.248;2023-08-07T09:37:58;15.60;99.90
16781;DHT22;8507;50.056;8.248;2023-08-07T09:40:23;15.60;99.90
16781;DHT22;8507;50.056;8.248;2023-08-07T09:42:54;15.70;99.90
16781;DHT22;8507;50.056;8.248;2023-08-07T09:45:24;15.80;99.90
16781;DHT22;8507;50.056;8.248;2023-08-07T09:48:22;15.80;99.90
16781;DHT22;8507;50.056;8.248;2023-08-07T09:50:48;15.80;99.90
16781;DHT22;8507;50.056;8.248;2023-08-07T09:53:14;15.90;99.90
16781;DHT22;8507;50.056;8.248;2023-08-07T09:55:39;16.10;99.90
16781;DHT22;8507;50.056;8.248;2023-08-07T09:58:07;16.10;99.90
16781;DHT22;8507;50.056;8.248;2023-08-07T10:00:36;16.10;99.90
16781;DHT22;8507;50.056;8.248;2023-08-07T10:03:03;16.20;99.90
16781;DHT22;8507;50.056;8.248;2023-08-07T10:05:30;16.30;99.90
16781;DHT22;8507;50.056;8.248;2023-08-07T10:07:56;16.30;99.90
16781;DHT22;8507;50.056;8.248;2023-08-07T10:10:23;16.20;99.90
16781;DHT22;8507;50.056;8.248;2023-08-07T10:12:50;16.30;99.90
16781;DHT22;8507;50.056;8.248;2023-08-07T10:15:17;16.40;99.90
16781;DHT22;8507;50.056;8.248;2023-08-07T10:17:43;16.50;99.90
16781;DHT22;8507;50.056;8.248;2023-08-07T10:20:09;16.50;99.90
16781;DHT22;8507;50.056;8.248;2023-08-07T10:22:38;16.70;99.90
16781;DHT22;8507;50.056;8.248;2023-08-07T10:25:05;16.80;99.90
16781;DHT22;8507;50.056;8.248;2023-08-07T10:27:35;17.10;99.90
16781;DHT22;8507;50.056;8.248;2023-08-07T10:30:05;17.30;99.90
16781;DHT22;8507;50.056;8.248;2023-08-07T10:32:32;17.30;99.90
16781;DHT22;8507;50.056;8.248;2023-08-07T10:34:58;17.20;99.90
16781;DHT22;8507;50.056;8.248;2023-08-07T10:40:06;17.30;99.90
16781;DHT22;8507;50.056;8.248;2023-08-07T10:42:57;17.40;99.90
16781;DHT22;8507;50.056;8.248;2023-08-07T10:45:24;17.40;99.90
16781;DHT22;8507;50.056;8.248;2023-08-07T10:48:06;17.50;99.90
16781;DHT22;8507;50.056;8.248;2023-08-07T10:53:19;17.40;99.90
16781;DHT22;8507;50.056;8.248;2023-08-07T10:55:46;17.40;99.90
16781;DHT22;8507;50.056;8.248;2023-08-07T10:58:23;17.40;99.90
16781;DHT22;8507;50.056;8.248;2023-08-07T11:01:15;17.40;99.90
16781;DHT22;8507;50.056;8.248;2023-08-07T11:03:40;17.60;99.90
16781;DHT22;8507;50.056;8.248;2023-08-07T11:06:09;17.60;99.90
16781;DHT22;8507;50.056;8.248;2023-08-07T11:08:35;17.70;99.90
16781;DHT22;8507;50.056;8.248;2023-08-07T11:11:04;17.70;99.90
16781;DHT22;8507;50.056;8.248;2023-08-07T11:13:30;17.90;99.90
16781;DHT22;8507;50.056;8.248;2023-08-07T11:15:55;18.00;99.90
16781;DHT22;8507;50.056;8.248;2023-08-07T11:18:22;18.10;99.90
16781;DHT22;8507;50.056;8.248;2023-08-07T11:20:48;18.50;99.90
16781;DHT22;8507;50.056;8.248;2023-08-07T11:23:13;18.70;99.90
16781;DHT22;8507;50.056;8.248;2023-08-07T11:25:39;18.80;99.90
16781;DHT22;8507;50.056;8.248;2023-08-07T11:28:06;18.80;99.90
16781;DHT22;8507;50.056;8.248;2023-08-07T11:30:34;19.00;99.90
16781;DHT22;8507;50.056;8.248;2023-08-07T11:33:00;18.90;99.90
16781;DHT22;8507;50.056;8.248;2023-08-07T11:35:26;18.80;99.90
16781;DHT22;8507;50.056;8.248;2023-08-07T11:37:51;18.70;99.90
16781;DHT22;8507;50.056;8.248;2023-08-07T11:40:19;19.10;99.90
16781;DHT22;8507;50.056;8.248;2023-08-07T11:42:45;19.00;99.90
16781;DHT22;8507;50.056;8.248;2023-08-07T11:45:10;19.00;99.90
16781;DHT22;8507;50.056;8.248;2023-08-07T11:47:36;19.00;99.90
16781;DHT22;8507;50.056;8.248;2023-08-07T11:50:02;18.90;99.90
16781;DHT22;8507;50.056;8.248;2023-08-07T11:52:28;18.90;99.90
16781;DHT22;8507;50.056;8.248;2023-08-07T11:54:53;19.00;99.90
16781;DHT22;8507;50.056;8.248;2023-08-07T11:57:22;19.10;99.90
16781;DHT22;8507;50.056;8.248;2023-08-07T11:59:50;18.90;99.90
16781;DHT22;8507;50.056;8.248;2023-08-07T12:02:15;18.60;99.90
16781;DHT22;8507;50.056;8.248;2023-08-07T12:04:41;18.70;99.90
16781;DHT22;8507;50.056;8.248;2023-08-07T12:07:07;18.90;99.90
16781;DHT22;8507;50.056;8.248;2023-08-07T12:09:36;19.00;99.90
16781;DHT22;8507;50.056;8.248;2023-08-07T12:12:02;19.30;99.90
16781;DHT22;8507;50.056;8.248;2023-08-07T12:14:31;19.50;99.90
16781;DHT22;8507;50.056;8.248;2023-08-07T12:16:57;19.70;99.90
16781;DHT22;8507;50.056;8.248;2023-08-07T12:19:22;19.90;99.90
16781;DHT22;8507;50.056;8.248;2023-08-07T12:21:48;19.90;99.90
16781;DHT22;8507;50.056;8.248;2023-08-07T12:24:13;19.90;99.90
16781;DHT22;8507;50.056;8.248;2023-08-07T12:26:39;19.70;99.90
16781;DHT22;8507;50.056;8.248;2023-08-07T12:29:04;19.80;99.90
16781;DHT22;8507;50.056;8.248;2023-08-07T12:31:30;19.60;99.90
16781;DHT22;8507;50.056;8.248;2023-08-07T12:33:56;19.50;99.90
16781;DHT22;8507;50.056;8.248;2023-08-07T12:36:21;19.30;99.90
16781;DHT22;8507;50.056;8.248;2023-08-07T12:38:47;19.70;99.90
16781;DHT22;8507;50.056;8.248;2023-08-07T12:41:12;20.20;99.90
16781;DHT22;8507;50.056;8.248;2023-08-07T12:43:39;20.20;99.90
16781;DHT22;8507;50.056;8.248;2023-08-07T12:46:05;20.30;99.90
16781;DHT22;8507;50.056;8.248;2023-08-07T12:48:30;20.50;99.90
16781;DHT22;8507;50.056;8.248;2023-08-07T12:50:56;20.60;99.90
16781;DHT22;8507;50.056;8.248;2023-08-07T12:53:21;20.60;99.90
16781;DHT22;8507;50.056;8.248;2023-08-07T12:55:47;20.80;99.90
16781;DHT22;8507;50.056;8.248;2023-08-07T12:58:12;20.60;99.90
16781;DHT22;8507;50.056;8.248;2023-08-07T13:00:38;20.30;99.90
16781;DHT22;8507;50.056;8.248;2023-08-07T13:03:03;20.20;99.90
16781;DHT22;8507;50.056;8.248;2023-08-07T13:05:29;20.00;99.90
16781;DHT22;8507;50.056;8.248;2023-08-07T13:07:56;19.70;99.90
16781;DHT22;8507;50.056;8.248;2023-08-07T13:10:24;19.70;99.90
16781;DHT22;8507;50.056;8.248;2023-08-07T13:12:49;19.60;99.90
16781;DHT22;8507;50.056;8.248;2023-08-07T13:15:16;19.80;99.90
16781;DHT22;8507;50.056;8.248;2023-08-07T13:17:43;19.70;99.90
16781;DHT22;8507;50.056;8.248;2023-08-07T13:20:11;19.90;99.90
16781;DHT22;8507;50.056;8.248;2023-08-07T13:22:39;19.80;99.90
16781;DHT22;8507;50.056;8.248;2023-08-07T13:25:05;20.00;99.90
16781;DHT22;8507;50.056;8.248;2023-08-07T13:27:33;20.10;99.90
16781;DHT22;8507;50.056;8.248;2023-08-07T13:29:58;20.30;99.90
16781;DHT22;8507;50.056;8.248;2023-08-07T13:32:25;20.50;99.90
16781;DHT22;8507;50.056;8.248;2023-08-07T13:34:51;20.80;99.90
16781;DHT22;8507;50.056;8.248;2023-08-07T13:37:16;20.70;99.90
16781;DHT22;8507;50.056;8.248;2023-08-07T13:39:42;20.60;99.90
16781;DHT22;8507;50.056;8.248;2023-08-07T13:42:08;20.50;99.90
16781;DHT22;8507;50.056;8.248;2023-08-07T13:44:33;20.70;99.90
16781;DHT22;8507;50.056;8.248;2023-08-07T13:46:59;20.70;99.90
16781;DHT22;8507;50.056;8.248;2023-08-07T13:49:24;21.20;99.90
16781;DHT22;8507;50.056;8.248;2023-08-07T13:51:50;21.40;99.90
16781;DHT22;8507;50.056;8.248;2023-08-07T13:54:16;21.60;99.90
16781;DHT22;8507;50.056;8.248;2023-08-07T13:56:41;21.40;99.90
16781;DHT22;8507;50.056;8.248;2023-08-07T13:59:07;21.10;99.90
16781;DHT22;8507;50.056;8.248;2023-08-07T14:01:34;21.10;99.90
16781;DHT22;8507;50.056;8.248;2023-08-07T14:04:01;21.00;99.90
16781;DHT22;8507;50.056;8.248;2023-08-07T14:06:27;21.00;99.90
16781;DHT22;8507;50.056;8.248;2023-08-07T14:08:52;21.10;99.90
16781;DHT22;8507;50.056;8.248;2023-08-07T14:11:18;20.90;99.90
16781;DHT22;8507;50.056;8.248;2023-08-07T14:13:44;20.90;99.90
16781;DHT22;8507;50.056;8.248;2023-08-07T14:16:11;21.20;99.90
16781;DHT22;8507;50.056;8.248;2023-08-07T14:18:37;21.40;99.90
16781;DHT22;8507;50.056;8.248;2023-08-07T14:21:03;21.50;99.90
16781;DHT22;8507;50.056;8.248;2023-08-07T14:23:28;21.30;99.90
16781;DHT22;8507;50.056;8.248;2023-08-07T14:25:54;21.20;99.90
16781;DHT22;8507;50.056;8.248;2023-08-07T14:28:19;21.00;99.90
16781;DHT22;8507;50.056;8.248;2023-08-07T14:30:45;20.80;99.90
16781;DHT22;8507;50.056;8.248;2023-08-07T14:33:11;20.90;99.90
16781;DHT22;8507;50.056;8.248;2023-08-07T14:35:36;20.70;99.90
16781;DHT22;8507;50.056;8.248;2023-08-07T14:38:02;20.50;99.90
16781;DHT22;8507;50.056;8.248;2023-08-07T14:40:27;20.50;99.90
16781;DHT22;8507;50.056;8.248;2023-08-07T14:42:54;20.40;99.90
16781;DHT22;8507;50.056;8.248;2023-08-07T14:45:20;20.40;99.90
16781;DHT22;8507;50.056;8.248;2023-08-07T14:47:46;20.50;99.90
16781;DHT22;8507;50.056;8.248;2023-08-07T14:50:11;20.70;99.90
16781;DHT22;8507;50.056;8.248;2023-08-07T14:52:37;20.70;99.90
16781;DHT22;8507;50.056;8.248;2023-08-07T14:55:03;20.80;99.90
16781;DHT22;8507;50.056;8.248;2023-08-07T14:57:29;20.70;99.90
16781;DHT22;8507;50.056;8.248;2023-08-07T14:59:55;20.60;99.90
16781;DHT22;8507;50.056;8.248;2023-08-07T15:02:21;20.70;99.90
16781;DHT22;8507;50.056;8.248;2023-08-07T15:04:46;21.00;99.90
16781;DHT22;8507;50.056;8.248;2023-08-07T15:07:12;21.10;99.90
16781;DHT22;8507;50.056;8.248;2023-08-07T15:09:38;21.40;99.90
16781;DHT22;8507;50.056;8.248;2023-08-07T15:12:03;21.40;99.90
16781;DHT22;8507;50.056;8.248;2023-08-07T15:14:32;21.60;99.90
16781;DHT22;8507;50.056;8.248;2023-08-07T15:16:57;21.70;99.90
16781;DHT22;8507;50.056;8.248;2023-08-07T15:19:23;21.80;99.90
16781;DHT22;8507;50.056;8.248;2023-08-07T15:21:50;21.90;99.90
16781;DHT22;8507;50.056;8.248;2023-08-07T15:24:16;21.90;99.90
16781;DHT22;8507;50.056;8.248;2023-08-07T15:26:41;21.80;99.90
16781;DHT22;8507;50.056;8.248;2023-08-07T15:29:07;21.80;99.90
16781;DHT22;8507;50.056;8.248;2023-08-07T15:31:33;22.00;99.90
16781;DHT22;8507;50.056;8.248;2023-08-07T15:33:58;21.90;99.90
16781;DHT22;8507;50.056;8.248;2023-08-07T15:36:24;21.80;99.90
16781;DHT22;8507;50.056;8.248;2023-08-07T15:38:49;21.80;99.90
16781;DHT22;8507;50.056;8.248;2023-08-07T15:41:15;21.80;99.90
16781;DHT22;8507;50.056;8.248;2023-08-07T15:43:40;21.80;99.90
16781;DHT22;8507;50.056;8.248;2023-08-07T15:46:06;21.80;99.90
16781;DHT22;8507;50.056;8.248;2023-08-07T15:48:32;21.80;99.90
16781;DHT22;8507;50.056;8.248;2023-08-07T15:50:57;21.60;99.90